sensor_id;sensor_type;location;lat;lon;timestamp;pressure;altitude;pressure_sealevel;temperature;humidity
5146;BME280;2591;48.144;15.152;2022-08-25T00:01:54;75075.28;;;-144.65;100.00
5146;BME280;2591;48.144;15.152;2022-08-25T00:04:23;75075.28;;;-144.65;100.00
5146;BME280;2591;48.144;15.152;2022-08-25T00:06:52;75075.28;;;-144.65;100.00
5146;BME280;2591;48.144;15.152;2022-08-25T00:09:28;75075.28;;;-144.65;100.00
5146;BME280;2591;48.144;15.152;2022-08-25T00:11:57;75067.13;;;-144.65;100.00
5146;BME280;2591;48.144;15.152;2022-08-25T00:14:27;75069.16;;;-144.65;100.00
5146;BME280;2591;48.144;15.152;2022-08-25T00:16:56;75073.25;;;-144.65;100.00
5146;BME280;2591;48.144;15.152;2022-08-25T00:19:26;75067.13;;;-144.65;100.00
5146;BME280;2591;48.144;15.152;2022-08-25T00:21:55;75067.13;;;-144.65;100.00
5146;BME280;2591;48.144;15.152;2022-08-25T00:24:23;75067.13;;;-144.65;100.00
5146;BME280;2591;48.144;15.152;2022-08-25T00:26:53;75069.16;;;-144.65;100.00
5146;BME280;2591;48.144;15.152;2022-08-25T00:29:23;75063.06;;;-144.65;100.00
5146;BME280;2591;48.144;15.152;2022-08-25T00:31:53;75063.06;;;-144.65;100.00
5146;BME280;2591;48.144;15.152;2022-08-25T00:34:25;75067.13;;;-144.65;100.00
5146;BME280;2591;48.144;15.152;2022-08-25T00:36:55;75071.22;;;-144.65;100.00
5146;BME280;2591;48.144;15.152;2022-08-25T00:39:24;75063.06;;;-144.65;100.00
5146;BME280;2591;48.144;15.152;2022-08-25T00:41:54;75063.06;;;-144.65;100.00
5146;BME280;2591;48.144;15.152;2022-08-25T00:44:26;75063.06;;;-144.65;100.00
5146;BME280;2591;48.144;15.152;2022-08-25T00:46:57;75067.13;;;-144.65;100.00
5146;BME280;2591;48.144;15.152;2022-08-25T00:49:29;75071.22;;;-144.65;100.00
5146;BME280;2591;48.144;15.152;2022-08-25T00:52:00;75067.13;;;-144.65;100.00
5146;BME280;2591;48.144;15.152;2022-08-25T00:54:33;75067.13;;;-144.65;100.00
5146;BME280;2591;48.144;15.152;2022-08-25T00:57:02;75056.94;;;-144.65;100.00
5146;BME280;2591;48.144;15.152;2022-08-25T00:59:31;75054.91;;;-144.65;100.00
5146;BME280;2591;48.144;15.152;2022-08-25T01:02:00;75054.91;;;-144.65;100.00
5146;BME280;2591;48.144;15.152;2022-08-25T01:04:29;75054.91;;;-144.65;100.00
5146;BME280;2591;48.144;15.152;2022-08-25T01:06:59;75058.97;;;-144.65;100.00
5146;BME280;2591;48.144;15.152;2022-08-25T01:09:29;75054.91;;;-144.65;100.00
5146;BME280;2591;48.144;15.152;2022-08-25T01:11:58;75050.81;;;-144.65;100.00
5146;BME280;2591;48.144;15.152;2022-08-25T01:14:28;75050.81;;;-144.65;100.00
5146;BME280;2591;48.144;15.152;2022-08-25T01:16:58;75046.75;;;-144.65;100.00
5146;BME280;2591;48.144;15.152;2022-08-25T01:19:27;75048.78;;;-144.65;100.00
5146;BME280;2591;48.144;15.152;2022-08-25T01:21:59;75050.81;;;-144.65;100.00
5146;BME280;2591;48.144;15.152;2022-08-25T01:24:37;75046.75;;;-144.65;100.00
5146;BME280;2591;48.144;15.152;2022-08-25T01:27:08;75042.69;;;-144.65;100.00
5146;BME280;2591;48.144;15.152;2022-08-25T01:29:37;75050.81;;;-144.65;100.00
5146;BME280;2591;48.144;15.152;2022-08-25T01:32:07;75046.75;;;-144.65;100.00
5146;BME280;2591;48.144;15.152;2022-08-25T01:34:37;75048.78;;;-144.65;100.00
5146;BME280;2591;48.144;15.152;2022-08-25T01:37:09;75046.75;;;-144.65;100.00
5146;BME280;2591;48.144;15.152;2022-08-25T01:39:40;75034.53;;;-144.65;100.00
5146;BME280;2591;48.144;15.152;2022-08-25T01:44:55;75028.41;;;-144.65;100.00
5146;BME280;2591;48.144;15.152;2022-08-25T01:47:23;75026.38;;;-144.65;100.00
5146;BME280;2591;48.144;15.152;2022-08-25T01:49:51;75028.41;;;-144.65;100.00
5146;BME280;2591;48.144;15.152;2022-08-25T01:52:24;75026.38;;;-144.65;100.00
5146;BME280;2591;48.144;15.152;2022-08-25T01:54:54;75024.34;;;-144.65;100.00
5146;BME280;2591;48.144;15.152;2022-08-25T01:57:22;75022.28;;;-144.65;100.00
5146;BME280;2591;48.144;15.152;2022-08-25T01:59:50;75022.28;;;-144.65;100.00
5146;BME280;2591;48.144;15.152;2022-08-25T02:02:18;75022.28;;;-144.65;100.00
5146;BME280;2591;48.144;15.152;2022-08-25T02:04:46;75026.38;;;-144.65;100.00
5146;BME280;2591;48.144;15.152;2022-08-25T02:07:16;75026.38;;;-144.65;100.00
5146;BME280;2591;48.144;15.152;2022-08-25T02:09:46;75022.28;;;-144.65;100.00
5146;BME280;2591;48.144;15.152;2022-08-25T02:12:14;75020.25;;;-144.65;100.00
5146;BME280;2591;48.144;15.152;2022-08-25T02:14:42;75018.22;;;-144.65;100.00
5146;BME280;2591;48.144;15.152;2022-08-25T02:17:10;75018.22;;;-144.65;100.00
5146;BME280;2591;48.144;15.152;2022-08-25T02:19:38;75016.19;;;-144.65;100.00
5146;BME280;2591;48.144;15.152;2022-08-25T02:22:06;75018.22;;;-144.65;100.00
5146;BME280;2591;48.144;15.152;2022-08-25T02:24:34;75010.06;;;-144.65;100.00
5146;BME280;2591;48.144;15.152;2022-08-25T02:27:04;75012.09;;;-144.65;100.00
5146;BME280;2591;48.144;15.152;2022-08-25T02:29:32;75003.94;;;-144.65;100.00
5146;BME280;2591;48.144;15.152;2022-08-25T02:32:01;75001.91;;;-144.65;100.00
5146;BME280;2591;48.144;15.152;2022-08-25T02:34:29;75003.94;;;-144.65;100.00
5146;BME280;2591;48.144;15.152;2022-08-25T02:36:57;75003.94;;;-144.65;100.00
5146;BME280;2591;48.144;15.152;2022-08-25T02:39:25;75001.91;;;-144.65;100.00
5146;BME280;2591;48.144;15.152;2022-08-25T02:41:53;75001.91;;;-144.65;100.00
5146;BME280;2591;48.144;15.152;2022-08-25T02:44:22;74999.88;;;-144.65;100.00
5146;BME280;2591;48.144;15.152;2022-08-25T02:46:50;75001.91;;;-144.65;100.00
5146;BME280;2591;48.144;15.152;2022-08-25T02:49:18;75006.00;;;-144.65;100.00
5146;BME280;2591;48.144;15.152;2022-08-25T02:51:46;74999.88;;;-144.65;100.00
5146;BME280;2591;48.144;15.152;2022-08-25T02:54:14;75001.91;;;-144.65;100.00
5146;BME280;2591;48.144;15.152;2022-08-25T02:56:42;74997.84;;;-144.65;100.00
5146;BME280;2591;48.144;15.152;2022-08-25T02:59:10;75001.91;;;-144.65;100.00
5146;BME280;2591;48.144;15.152;2022-08-25T03:01:40;75001.91;;;-144.65;100.00
5146;BME280;2591;48.144;15.152;2022-08-25T03:04:08;74995.81;;;-144.65;100.00
5146;BME280;2591;48.144;15.152;2022-08-25T03:06:36;74993.75;;;-144.65;100.00
5146;BME280;2591;48.144;15.152;2022-08-25T03:09:05;74993.75;;;-144.65;100.00
5146;BME280;2591;48.144;15.152;2022-08-25T03:11:34;74987.66;;;-144.65;100.00
5146;BME280;2591;48.144;15.152;2022-08-25T03:14:04;74987.66;;;-144.65;100.00
5146;BME280;2591;48.144;15.152;2022-08-25T03:16:32;74991.72;;;-144.65;100.00
5146;BME280;2591;48.144;15.152;2022-08-25T03:19:02;74985.59;;;-144.65;100.00
5146;BME280;2591;48.144;15.152;2022-08-25T03:21:31;74993.75;;;-144.65;100.00
5146;BME280;2591;48.144;15.152;2022-08-25T03:24:00;74991.72;;;-144.65;100.00
5146;BME280;2591;48.144;15.152;2022-08-25T03:26:27;74993.75;;;-144.65;100.00
5146;BME280;2591;48.144;15.152;2022-08-25T03:29:13;74997.84;;;-144.65;100.00
5146;BME280;2591;48.144;15.152;2022-08-25T03:31:43;75001.91;;;-144.65;100.00
5146;BME280;2591;48.144;15.152;2022-08-25T03:34:13;75001.91;;;-144.65;100.00
5146;BME280;2591;48.144;15.152;2022-08-25T03:36:44;75001.91;;;-144.65;100.00
5146;BME280;2591;48.144;15.152;2022-08-25T03:39:13;75008.03;;;-144.65;100.00
5146;BME280;2591;48.144;15.152;2022-08-25T03:41:41;75006.00;;;-144.65;100.00
5146;BME280;2591;48.144;15.152;2022-08-25T03:44:09;75001.91;;;-144.65;100.00
5146;BME280;2591;48.144;15.152;2022-08-25T03:46:40;74999.88;;;-144.65;100.00
5146;BME280;2591;48.144;15.152;2022-08-25T03:49:10;75001.91;;;-144.65;100.00
5146;BME280;2591;48.144;15.152;2022-08-25T03:51:41;75008.03;;;-144.65;100.00
5146;BME280;2591;48.144;15.152;2022-08-25T03:54:10;75010.06;;;-144.65;100.00
5146;BME280;2591;48.144;15.152;2022-08-25T03:56:39;75012.09;;;-144.65;100.00
5146;BME280;2591;48.144;15.152;2022-08-25T03:59:07;75001.91;;;-144.65;100.00
5146;BME280;2591;48.144;15.152;2022-08-25T04:01:35;75006.00;;;-144.65;100.00
5146;BME280;2591;48.144;15.152;2022-08-25T04:04:05;74997.84;;;-144.65;100.00
5146;BME280;2591;48.144;15.152;2022-08-25T04:06:35;74997.84;;;-144.65;100.00
5146;BME280;2591;48.144;15.152;2022-08-25T04:09:04;74997.84;;;-144.65;100.00
5146;BME280;2591;48.144;15.152;2022-08-25T04:11:32;74993.75;;;-144.65;100.00
5146;BME280;2591;48.144;15.152;2022-08-25T04:14:01;74993.75;;;-144.65;100.00
5146;BME280;2591;48.144;15.152;2022-08-25T04:16:31;74989.69;;;-144.65;100.00
5146;BME280;2591;48.144;15.152;2022-08-25T04:19:02;74985.59;;;-144.65;100.00
5146;BME280;2591;48.144;15.152;2022-08-25T04:21:30;74985.59;;;-144.65;100.00
5146;BME280;2591;48.144;15.152;2022-08-25T04:23:59;74989.69;;;-144.65;100.00
5146;BME280;2591;48.144;15.152;2022-08-25T04:26:30;74981.53;;;-144.65;100.00
5146;BME280;2591;48.144;15.152;2022-08-25T04:29:00;74983.56;;;-144.65;100.00
5146;BME280;2591;48.144;15.152;2022-08-25T04:31:30;74981.53;;;-144.65;100.00
5146;BME280;2591;48.144;15.152;2022-08-25T04:34:01;74977.47;;;-144.65;100.00
5146;BME280;2591;48.144;15.152;2022-08-25T04:36:40;74981.53;;;-144.65;100.00
5146;BME280;2591;48.144;15.152;2022-08-25T04:39:08;74983.56;;;-144.65;100.00
5146;BME280;2591;48.144;15.152;2022-08-25T04:41:38;74985.59;;;-144.65;100.00
5146;BME280;2591;48.144;15.152;2022-08-25T04:44:06;74987.66;;;-144.65;100.00
5146;BME280;2591;48.144;15.152;2022-08-25T04:46:34;74989.69;;;-144.65;100.00
5146;BME280;2591;48.144;15.152;2022-08-25T04:49:03;74993.75;;;-144.65;100.00
5146;BME280;2591;48.144;15.152;2022-08-25T04:51:34;74989.69;;;-144.65;100.00
5146;BME280;2591;48.144;15.152;2022-08-25T04:54:05;74997.84;;;-144.65;100.00
5146;BME280;2591;48.144;15.152;2022-08-25T04:56:34;74993.75;;;-144.65;100.00
5146;BME280;2591;48.144;15.152;2022-08-25T04:59:05;74989.69;;;-144.65;100.00
5146;BME280;2591;48.144;15.152;2022-08-25T05:01:36;74989.69;;;-144.65;100.00
5146;BME280;2591;48.144;15.152;2022-08-25T05:04:06;74983.56;;;-144.65;100.00
5146;BME280;2591;48.144;15.152;2022-08-25T05:06:54;74985.59;;;-144.65;100.00
5146;BME280;2591;48.144;15.152;2022-08-25T05:09:22;74985.59;;;-144.65;100.00
5146;BME280;2591;48.144;15.152;2022-08-25T05:11:51;74979.50;;;-144.65;100.00
5146;BME280;2591;48.144;15.152;2022-08-25T05:14:21;74973.38;;;-144.65;100.00
5146;BME280;2591;48.144;15.152;2022-08-25T05:16:52;74969.31;;;-144.65;100.00
5146;BME280;2591;48.144;15.152;2022-08-25T05:19:20;74965.22;;;-144.65;100.00
5146;BME280;2591;48.144;15.152;2022-08-25T05:21:50;74967.25;;;-144.65;100.00
5146;BME280;2591;48.144;15.152;2022-08-25T05:24:19;74955.03;;;-144.65;100.00
5146;BME280;2591;48.144;15.152;2022-08-25T05:26:48;74955.03;;;-144.65;100.00
5146;BME280;2591;48.144;15.152;2022-08-25T05:29:16;74948.91;;;-144.65;100.00
5146;BME280;2591;48.144;15.152;2022-08-25T05:31:46;74944.84;;;-144.65;100.00
5146;BME280;2591;48.144;15.152;2022-08-25T05:34:17;74944.84;;;-144.65;100.00
5146;BME280;2591;48.144;15.152;2022-08-25T05:36:46;74942.81;;;-144.65;100.00
5146;BME280;2591;48.144;15.152;2022-08-25T05:39:14;74944.84;;;-144.65;100.00
5146;BME280;2591;48.144;15.152;2022-08-25T05:41:42;74946.88;;;-144.65;100.00
5146;BME280;2591;48.144;15.152;2022-08-25T05:44:10;74944.84;;;-144.65;100.00
5146;BME280;2591;48.144;15.152;2022-08-25T05:46:43;74948.91;;;-144.65;100.00
5146;BME280;2591;48.144;15.152;2022-08-25T05:49:13;74944.84;;;-144.65;100.00
5146;BME280;2591;48.144;15.152;2022-08-25T05:51:41;74940.78;;;-144.65;100.00
5146;BME280;2591;48.144;15.152;2022-08-25T05:54:09;74944.84;;;-144.65;100.00
5146;BME280;2591;48.144;15.152;2022-08-25T05:56:37;74946.88;;;-144.65;100.00
5146;BME280;2591;48.144;15.152;2022-08-25T05:59:05;74932.63;;;-144.65;100.00
5146;BME280;2591;48.144;15.152;2022-08-25T06:01:35;74938.72;;;-144.65;100.00
5146;BME280;2591;48.144;15.152;2022-08-25T06:04:28;74940.78;;;-144.65;100.00
5146;BME280;2591;48.144;15.152;2022-08-25T06:06:56;74944.84;;;-144.65;100.00
5146;BME280;2591;48.144;15.152;2022-08-25T06:09:24;74944.84;;;-144.65;100.00
5146;BME280;2591;48.144;15.152;2022-08-25T06:11:53;74953.00;;;-144.65;100.00
5146;BME280;2591;48.144;15.152;2022-08-25T06:14:22;74953.00;;;-144.65;100.00
5146;BME280;2591;48.144;15.152;2022-08-25T06:16:50;74942.81;;;-144.65;100.00
5146;BME280;2591;48.144;15.152;2022-08-25T06:19:19;74928.53;;;-144.65;100.00
5146;BME280;2591;48.144;15.152;2022-08-25T06:21:53;74932.63;;;-144.65;100.00
5146;BME280;2591;48.144;15.152;2022-08-25T06:24:22;74928.53;;;-144.65;100.00
5146;BME280;2591;48.144;15.152;2022-08-25T06:26:51;74924.47;;;-144.65;100.00
5146;BME280;2591;48.144;15.152;2022-08-25T06:29:19;74918.34;;;-144.65;100.00
5146;BME280;2591;48.144;15.152;2022-08-25T06:31:47;74912.22;;;-144.65;100.00
5146;BME280;2591;48.144;15.152;2022-08-25T06:34:16;74902.03;;;-144.65;100.00
5146;BME280;2591;48.144;15.152;2022-08-25T06:36:49;74908.16;;;-144.65;100.00
5146;BME280;2591;48.144;15.152;2022-08-25T06:39:18;74895.94;;;-144.65;100.00
5146;BME280;2591;48.144;15.152;2022-08-25T06:41:50;74875.56;;;-144.65;100.00
5146;BME280;2591;48.144;15.152;2022-08-25T06:44:18;74867.41;;;-144.65;100.00
5146;BME280;2591;48.144;15.152;2022-08-25T06:46:46;74859.25;;;-144.65;100.00
5146;BME280;2591;48.144;15.152;2022-08-25T06:49:14;74855.16;;;-144.65;100.00
5146;BME280;2591;48.144;15.152;2022-08-25T06:51:42;74859.25;;;-144.65;100.00
5146;BME280;2591;48.144;15.152;2022-08-25T06:54:10;74849.06;;;-144.65;100.00
5146;BME280;2591;48.144;15.152;2022-08-25T06:56:40;74847.00;;;-144.65;100.00
5146;BME280;2591;48.144;15.152;2022-08-25T06:59:09;74844.97;;;-144.65;100.00
5146;BME280;2591;48.144;15.152;2022-08-25T07:01:37;74847.00;;;-144.65;100.00
5146;BME280;2591;48.144;15.152;2022-08-25T07:04:06;74842.94;;;-144.65;100.00
5146;BME280;2591;48.144;15.152;2022-08-25T07:06:39;74824.59;;;-144.65;100.00
5146;BME280;2591;48.144;15.152;2022-08-25T07:09:08;74818.47;;;-144.65;100.00
5146;BME280;2591;48.144;15.152;2022-08-25T07:11:37;74822.56;;;-144.65;100.00
5146;BME280;2591;48.144;15.152;2022-08-25T07:14:09;74822.56;;;-144.65;100.00
5146;BME280;2591;48.144;15.152;2022-08-25T07:16:38;74814.41;;;-144.65;100.00
5146;BME280;2591;48.144;15.152;2022-08-25T07:19:14;74822.56;;;-144.65;100.00
5146;BME280;2591;48.144;15.152;2022-08-25T07:21:48;74820.53;;;-144.65;100.00
5146;BME280;2591;48.144;15.152;2022-08-25T07:24:17;74830.72;;;-144.65;100.00
5146;BME280;2591;48.144;15.152;2022-08-25T07:26:45;74826.63;;;-144.65;100.00
5146;BME280;2591;48.144;15.152;2022-08-25T07:29:16;74822.56;;;-144.65;100.00
5146;BME280;2591;48.144;15.152;2022-08-25T07:31:46;74822.56;;;-144.65;100.00
5146;BME280;2591;48.144;15.152;2022-08-25T07:34:14;74826.63;;;-144.65;100.00
5146;BME280;2591;48.144;15.152;2022-08-25T07:37:01;74832.75;;;-144.65;100.00
5146;BME280;2591;48.144;15.152;2022-08-25T07:39:32;74838.88;;;-144.65;100.00
5146;BME280;2591;48.144;15.152;2022-08-25T07:42:00;74834.78;;;-144.65;100.00
5146;BME280;2591;48.144;15.152;2022-08-25T07:44:29;74824.59;;;-144.65;100.00
5146;BME280;2591;48.144;15.152;2022-08-25T07:46:57;74836.81;;;-144.65;100.00
5146;BME280;2591;48.144;15.152;2022-08-25T07:49:26;74826.63;;;-144.65;100.00
5146;BME280;2591;48.144;15.152;2022-08-25T07:52:02;74834.78;;;-144.65;100.00
5146;BME280;2591;48.144;15.152;2022-08-25T07:54:33;74838.88;;;-144.65;100.00
5146;BME280;2591;48.144;15.152;2022-08-25T07:57:06;74842.94;;;-144.65;100.00
5146;BME280;2591;48.144;15.152;2022-08-25T07:59:41;74847.00;;;-144.65;100.00
5146;BME280;2591;48.144;15.152;2022-08-25T08:02:11;74844.97;;;-144.65;100.00
5146;BME280;2591;48.144;15.152;2022-08-25T08:04:46;74840.91;;;-144.65;100.00
5146;BME280;2591;48.144;15.152;2022-08-25T08:07:16;74838.88;;;-144.65;100.00
5146;BME280;2591;48.144;15.152;2022-08-25T08:09:45;74838.88;;;-144.65;100.00
5146;BME280;2591;48.144;15.152;2022-08-25T08:12:25;74842.94;;;-144.65;100.00
5146;BME280;2591;48.144;15.152;2022-08-25T08:14:56;74826.63;;;-144.65;100.00
5146;BME280;2591;48.144;15.152;2022-08-25T08:17:25;74814.41;;;-144.65;100.00
5146;BME280;2591;48.144;15.152;2022-08-25T08:19:53;74814.41;;;-144.65;100.00
5146;BME280;2591;48.144;15.152;2022-08-25T08:22:22;74810.34;;;-144.65;100.00
5146;BME280;2591;48.144;15.152;2022-08-25T08:24:50;74800.16;;;-144.65;100.00
5146;BME280;2591;48.144;15.152;2022-08-25T08:27:21;74798.09;;;-144.65;100.00
5146;BME280;2591;48.144;15.152;2022-08-25T08:29:50;74806.25;;;-144.65;100.00
5146;BME280;2591;48.144;15.152;2022-08-25T08:32:20;74806.25;;;-144.65;100.00
5146;BME280;2591;48.144;15.152;2022-08-25T08:35:07;74802.19;;;-144.65;100.00
5146;BME280;2591;48.144;15.152;2022-08-25T08:37:36;74794.03;;;-144.65;100.00
5146;BME280;2591;48.144;15.152;2022-08-25T08:40:09;74787.91;;;-144.65;100.00
5146;BME280;2591;48.144;15.152;2022-08-25T08:42:49;74785.88;;;-144.65;100.00
5146;BME280;2591;48.144;15.152;2022-08-25T08:45:24;74781.81;;;-144.65;100.00
5146;BME280;2591;48.144;15.152;2022-08-25T08:48:06;74779.75;;;-144.65;100.00
5146;BME280;2591;48.144;15.152;2022-08-25T08:50:43;74773.66;;;-144.65;100.00
5146;BME280;2591;48.144;15.152;2022-08-25T08:53:21;74765.50;;;-144.65;100.00
5146;BME280;2591;48.144;15.152;2022-08-25T08:55:54;74763.47;;;-144.65;100.00
5146;BME280;2591;48.144;15.152;2022-08-25T08:58:27;74757.34;;;-144.65;100.00
5146;BME280;2591;48.144;15.152;2022-08-25T09:00:57;74749.19;;;-144.65;100.00
5146;BME280;2591;48.144;15.152;2022-08-25T09:03:32;74739.00;;;-144.65;100.00
5146;BME280;2591;48.144;15.152;2022-08-25T09:06:08;74732.88;;;-144.65;100.00
5146;BME280;2591;48.144;15.152;2022-08-25T09:08:39;74732.88;;;-144.65;100.00
5146;BME280;2591;48.144;15.152;2022-08-25T09:11:19;74730.84;;;-144.65;100.00
5146;BME280;2591;48.144;15.152;2022-08-25T09:14:11;74736.97;;;-144.65;100.00
5146;BME280;2591;48.144;15.152;2022-08-25T09:16:51;74732.88;;;-144.65;100.00
5146;BME280;2591;48.144;15.152;2022-08-25T09:19:32;74734.94;;;-144.65;100.00
5146;BME280;2591;48.144;15.152;2022-08-25T09:22:16;74732.88;;;-144.65;100.00
5146;BME280;2591;48.144;15.152;2022-08-25T09:25:10;74728.81;;;-144.65;100.00
5146;BME280;2591;48.144;15.152;2022-08-25T09:27:59;74734.94;;;-144.65;100.00
5146;BME280;2591;48.144;15.152;2022-08-25T09:30:34;74736.97;;;-144.65;100.00
5146;BME280;2591;48.144;15.152;2022-08-25T09:33:06;74732.88;;;-144.65;100.00
5146;BME280;2591;48.144;15.152;2022-08-25T09:35:38;74739.00;;;-144.65;100.00
5146;BME280;2591;48.144;15.152;2022-08-25T09:38:08;74736.97;;;-144.65;100.00
5146;BME280;2591;48.144;15.152;2022-08-25T09:40:39;74741.03;;;-144.65;100.00
5146;BME280;2591;48.144;15.152;2022-08-25T09:43:18;74741.03;;;-144.65;100.00
5146;BME280;2591;48.144;15.152;2022-08-25T09:45:49;74741.03;;;-144.65;100.00
5146;BME280;2591;48.144;15.152;2022-08-25T09:48:26;74730.84;;;-144.65;100.00
5146;BME280;2591;48.144;15.152;2022-08-25T09:51:00;74724.75;;;-144.65;100.00
5146;BME280;2591;48.144;15.152;2022-08-25T09:53:32;74720.66;;;-144.65;100.00
5146;BME280;2591;48.144;15.152;2022-08-25T09:56:02;74724.75;;;-144.65;100.00
5146;BME280;2591;48.144;15.152;2022-08-25T09:58:32;74726.78;;;-144.65;100.00
5146;BME280;2591;48.144;15.152;2022-08-25T10:01:05;74730.84;;;-144.65;100.00
5146;BME280;2591;48.144;15.152;2022-08-25T10:03:34;74728.81;;;-144.65;100.00
5146;BME280;2591;48.144;15.152;2022-08-25T10:06:06;74730.84;;;-144.65;100.00
5146;BME280;2591;48.144;15.152;2022-08-25T10:08:51;74732.88;;;-144.65;100.00
5146;BME280;2591;48.144;15.152;2022-08-25T10:11:31;74728.81;;;-144.65;100.00
5146;BME280;2591;48.144;15.152;2022-08-25T10:14:04;74732.88;;;-144.65;100.00
5146;BME280;2591;48.144;15.152;2022-08-25T10:16:33;74739.00;;;-144.65;100.00
5146;BME280;2591;48.144;15.152;2022-08-25T10:19:06;74736.97;;;-144.65;100.00
5146;BME280;2591;48.144;15.152;2022-08-25T10:21:38;74728.81;;;-144.65;100.00
5146;BME280;2591;48.144;15.152;2022-08-25T10:24:07;74726.78;;;-144.65;100.00
5146;BME280;2591;48.144;15.152;2022-08-25T10:26:45;74708.44;;;-144.65;100.00
5146;BME280;2591;48.144;15.152;2022-08-25T10:29:24;74702.31;;;-144.65;100.00
5146;BME280;2591;48.144;15.152;2022-08-25T10:32:04;74692.13;;;-144.65;100.00
5146;BME280;2591;48.144;15.152;2022-08-25T10:34:45;74679.91;;;-144.65;100.00
5146;BME280;2591;48.144;15.152;2022-08-25T10:37:27;74653.41;;;-144.65;100.00
5146;BME280;2591;48.144;15.152;2022-08-25T10:40:08;74635.06;;;-144.65;100.00
5146;BME280;2591;48.144;15.152;2022-08-25T10:42:42;74635.06;;;-144.65;100.00
5146;BME280;2591;48.144;15.152;2022-08-25T10:45:19;74618.75;;;-144.65;100.00
5146;BME280;2591;48.144;15.152;2022-08-25T10:48:23;74596.34;;;-144.65;100.00
5146;BME280;2591;48.144;15.152;2022-08-25T10:50:57;74590.22;;;-144.65;100.00
5146;BME280;2591;48.144;15.152;2022-08-25T10:53:38;74580.03;;;-144.65;100.00
5146;BME280;2591;48.144;15.152;2022-08-25T10:56:11;74557.63;;;-144.65;100.00
5146;BME280;2591;48.144;15.152;2022-08-25T10:59:06;74541.31;;;-144.65;100.00
5146;BME280;2591;48.144;15.152;2022-08-25T11:01:49;74529.09;;;-144.65;100.00
5146;BME280;2591;48.144;15.152;2022-08-25T11:04:26;74512.78;;;-144.65;100.00
5146;BME280;2591;48.144;15.152;2022-08-25T11:07:01;74498.53;;;-144.65;100.00
5146;BME280;2591;48.144;15.152;2022-08-25T11:09:33;74496.50;;;-144.65;100.00
5146;BME280;2591;48.144;15.152;2022-08-25T11:12:09;74467.97;;;-144.65;100.00
5146;BME280;2591;48.144;15.152;2022-08-25T11:14:46;74433.31;;;-144.65;100.00
5146;BME280;2591;48.144;15.152;2022-08-25T11:17:19;74419.06;;;-144.65;100.00
5146;BME280;2591;48.144;15.152;2022-08-25T11:19:54;74390.53;;;-144.65;100.00
5146;BME280;2591;48.144;15.152;2022-08-25T11:22:31;74386.44;;;-144.65;100.00
5146;BME280;2591;48.144;15.152;2022-08-25T11:25:09;74398.69;;;-144.65;100.00
5146;BME280;2591;48.144;15.152;2022-08-25T11:27:45;74417.00;;;-144.65;100.00
5146;BME280;2591;48.144;15.152;2022-08-25T11:30:16;74408.88;;;-144.65;100.00
5146;BME280;2591;48.144;15.152;2022-08-25T11:32:47;74419.06;;;-144.65;100.00
5146;BME280;2591;48.144;15.152;2022-08-25T11:35:19;74414.97;;;-144.65;100.00
5146;BME280;2591;48.144;15.152;2022-08-25T11:38:05;74402.75;;;-144.65;100.00
5146;BME280;2591;48.144;15.152;2022-08-25T11:40:49;74390.53;;;-144.65;100.00
5146;BME280;2591;48.144;15.152;2022-08-25T11:43:41;74372.19;;;-144.65;100.00
5146;BME280;2591;48.144;15.152;2022-08-25T11:46:25;74370.16;;;-144.65;100.00
5146;BME280;2591;48.144;15.152;2022-08-25T11:49:03;74390.53;;;-144.65;100.00
5146;BME280;2591;48.144;15.152;2022-08-25T11:51:41;74402.75;;;-144.65;100.00
5146;BME280;2591;48.144;15.152;2022-08-25T11:54:17;74423.13;;;-144.65;100.00
5146;BME280;2591;48.144;15.152;2022-08-25T11:56:58;74451.66;;;-144.65;100.00
5146;BME280;2591;48.144;15.152;2022-08-25T12:00:06;74463.88;;;-144.65;100.00
5146;BME280;2591;48.144;15.152;2022-08-25T12:02:38;74463.88;;;-144.65;100.00
5146;BME280;2591;48.144;15.152;2022-08-25T12:05:11;74443.50;;;-144.65;100.00
5146;BME280;2591;48.144;15.152;2022-08-25T12:08:02;74414.97;;;-144.65;100.00
5146;BME280;2591;48.144;15.152;2022-08-25T12:10:59;74331.44;;;-144.65;100.00
5146;BME280;2591;48.144;15.152;2022-08-25T12:13:45;74313.09;;;-144.65;100.00
5146;BME280;2591;48.144;15.152;2022-08-25T12:16:36;74264.19;;;-144.65;100.00
5146;BME280;2591;48.144;15.152;2022-08-25T12:19:24;74245.84;;;-144.65;100.00
5146;BME280;2591;48.144;15.152;2022-08-25T12:21:56;74215.28;;;-144.65;100.00
5146;BME280;2591;48.144;15.152;2022-08-25T12:24:48;74188.78;;;-144.65;100.00
5146;BME280;2591;48.144;15.152;2022-08-25T12:27:23;74158.22;;;-144.65;100.00
5146;BME280;2591;48.144;15.152;2022-08-25T12:30:01;74182.69;;;-144.65;100.00
5146;BME280;2591;48.144;15.152;2022-08-25T12:32:46;74192.88;;;-144.65;100.00
5146;BME280;2591;48.144;15.152;2022-08-25T12:35:25;74205.09;;;-144.65;100.00
5146;BME280;2591;48.144;15.152;2022-08-25T12:38:04;74211.22;;;-144.65;100.00
5146;BME280;2591;48.144;15.152;2022-08-25T12:40:38;74231.59;;;-144.65;100.00
5146;BME280;2591;48.144;15.152;2022-08-25T12:43:25;74262.16;;;-144.65;100.00
5146;BME280;2591;48.144;15.152;2022-08-25T12:46:33;74282.53;;;-144.65;100.00
5146;BME280;2591;48.144;15.152;2022-08-25T12:49:04;74278.44;;;-144.65;100.00
5146;BME280;2591;48.144;15.152;2022-08-25T12:51:51;74258.06;;;-144.65;100.00
5146;BME280;2591;48.144;15.152;2022-08-25T12:54:35;74247.88;;;-144.65;100.00
5146;BME280;2591;48.144;15.152;2022-08-25T12:57:21;74227.50;;;-144.65;100.00
5146;BME280;2591;48.144;15.152;2022-08-25T12:59:58;74194.91;;;-144.65;100.00
5146;BME280;2591;48.144;15.152;2022-08-25T13:02:48;74198.97;;;-144.65;100.00
5146;BME280;2591;48.144;15.152;2022-08-25T13:05:39;74196.94;;;-144.65;100.00
5146;BME280;2591;48.144;15.152;2022-08-25T13:08:34;74198.97;;;-144.65;100.00
5146;BME280;2591;48.144;15.152;2022-08-25T13:11:16;74194.91;;;-144.65;100.00
5146;BME280;2591;48.144;15.152;2022-08-25T13:13:50;74184.72;;;-144.65;100.00